sensor_id;sensor_type;location;lat;lon;timestamp;P1;durP1;ratioP1;P2;durP2;ratioP2
71046;SDS011;58703;48.978;8.982;2022-07-29T00:01:41;4.77;;;4.17;;
71046;SDS011;58703;48.978;8.982;2022-07-29T00:04:07;5.18;;;4.63;;
71046;SDS011;58703;48.978;8.982;2022-07-29T00:06:32;5.20;;;4.43;;
71046;SDS011;58703;48.978;8.982;2022-07-29T00:08:58;5.67;;;4.60;;
71046;SDS011;58703;48.978;8.982;2022-07-29T00:11:23;4.97;;;4.50;;
71046;SDS011;58703;48.978;8.982;2022-07-29T00:13:49;9.10;;;4.93;;
71046;SDS011;58703;48.978;8.982;2022-07-29T00:16:14;6.87;;;4.67;;
71046;SDS011;58703;48.978;8.982;2022-07-29T00:18:40;5.40;;;4.65;;
71046;SDS011;58703;48.978;8.982;2022-07-29T00:21:05;5.33;;;4.50;;
71046;SDS011;58703;48.978;8.982;2022-07-29T00:23:31;6.32;;;5.30;;
71046;SDS011;58703;48.978;8.982;2022-07-29T00:25:57;5.83;;;5.30;;
71046;SDS011;58703;48.978;8.982;2022-07-29T00:28:22;5.83;;;5.33;;
71046;SDS011;58703;48.978;8.982;2022-07-29T00:30:48;6.07;;;5.30;;
71046;SDS011;58703;48.978;8.982;2022-07-29T00:33:13;7.72;;;5.22;;
71046;SDS011;58703;48.978;8.982;2022-07-29T00:35:39;6.23;;;5.50;;
71046;SDS011;58703;48.978;8.982;2022-07-29T00:38:14;6.15;;;5.40;;
71046;SDS011;58703;48.978;8.982;2022-07-29T00:40:41;8.85;;;5.60;;
71046;SDS011;58703;48.978;8.982;2022-07-29T00:43:07;5.83;;;5.17;;
71046;SDS011;58703;48.978;8.982;2022-07-29T00:45:33;7.90;;;5.43;;
71046;SDS011;58703;48.978;8.982;2022-07-29T00:47:58;6.45;;;5.85;;
71046;SDS011;58703;48.978;8.982;2022-07-29T00:50:24;7.13;;;5.33;;
71046;SDS011;58703;48.978;8.982;2022-07-29T00:52:50;5.75;;;5.25;;
71046;SDS011;58703;48.978;8.982;2022-07-29T00:55:17;8.35;;;5.82;;
71046;SDS011;58703;48.978;8.982;2022-07-29T00:57:43;9.52;;;6.13;;
71046;SDS011;58703;48.978;8.982;2022-07-29T01:00:10;6.57;;;5.97;;
71046;SDS011;58703;48.978;8.982;2022-07-29T01:02:40;5.18;;;4.68;;
71046;SDS011;58703;48.978;8.982;2022-07-29T01:05:06;12.55;;;5.90;;
71046;SDS011;58703;48.978;8.982;2022-07-29T01:07:34;8.13;;;5.50;;
71046;SDS011;58703;48.978;8.982;2022-07-29T01:10:01;6.65;;;5.85;;
71046;SDS011;58703;48.978;8.982;2022-07-29T01:12:31;7.67;;;5.40;;
71046;SDS011;58703;48.978;8.982;2022-07-29T01:15:00;7.50;;;5.35;;
71046;SDS011;58703;48.978;8.982;2022-07-29T01:17:36;8.02;;;5.57;;
71046;SDS011;58703;48.978;8.982;2022-07-29T01:31:09;8.13;;;5.20;;
71046;SDS011;58703;48.978;8.982;2022-07-29T01:33:38;9.35;;;5.57;;
71046;SDS011;58703;48.978;8.982;2022-07-29T01:36:16;6.38;;;5.72;;
71046;SDS011;58703;48.978;8.982;2022-07-29T01:38:47;7.33;;;6.60;;
71046;SDS011;58703;48.978;8.982;2022-07-29T01:41:23;6.68;;;5.78;;
71046;SDS011;58703;48.978;8.982;2022-07-29T01:43:51;7.25;;;6.25;;
71046;SDS011;58703;48.978;8.982;2022-07-29T01:46:23;6.70;;;5.90;;
71046;SDS011;58703;48.978;8.982;2022-07-29T01:48:57;7.38;;;6.07;;
71046;SDS011;58703;48.978;8.982;2022-07-29T01:51:31;8.63;;;5.90;;
71046;SDS011;58703;48.978;8.982;2022-07-29T01:54:05;5.95;;;5.32;;
71046;SDS011;58703;48.978;8.982;2022-07-29T01:56:35;7.65;;;6.07;;
71046;SDS011;58703;48.978;8.982;2022-07-29T01:59:03;9.52;;;6.55;;
71046;SDS011;58703;48.978;8.982;2022-07-29T02:01:32;7.47;;;5.80;;
71046;SDS011;58703;48.978;8.982;2022-07-29T02:04:01;6.87;;;6.10;;
71046;SDS011;58703;48.978;8.982;2022-07-29T02:06:29;7.32;;;6.57;;
71046;SDS011;58703;48.978;8.982;2022-07-29T02:08:58;8.40;;;5.85;;
71046;SDS011;58703;48.978;8.982;2022-07-29T02:11:25;8.45;;;6.50;;
71046;SDS011;58703;48.978;8.982;2022-07-29T02:13:52;7.47;;;6.60;;
71046;SDS011;58703;48.978;8.982;2022-07-29T02:16:20;10.73;;;6.68;;
71046;SDS011;58703;48.978;8.982;2022-07-29T02:18:48;8.05;;;6.63;;
71046;SDS011;58703;48.978;8.982;2022-07-29T02:21:18;6.65;;;6.05;;
71046;SDS011;58703;48.978;8.982;2022-07-29T02:23:46;7.68;;;6.82;;
71046;SDS011;58703;48.978;8.982;2022-07-29T02:26:13;7.53;;;6.40;;
71046;SDS011;58703;48.978;8.982;2022-07-29T02:28:40;9.95;;;6.28;;
71046;SDS011;58703;48.978;8.982;2022-07-29T02:31:06;9.43;;;7.18;;
71046;SDS011;58703;48.978;8.982;2022-07-29T02:33:32;9.48;;;6.30;;
71046;SDS011;58703;48.978;8.982;2022-07-29T02:35:59;7.93;;;6.28;;
71046;SDS011;58703;48.978;8.982;2022-07-29T02:38:25;8.27;;;7.23;;
71046;SDS011;58703;48.978;8.982;2022-07-29T02:41:13;7.95;;;6.45;;
71046;SDS011;58703;48.978;8.982;2022-07-29T02:43:43;6.95;;;6.25;;
71046;SDS011;58703;48.978;8.982;2022-07-29T02:46:11;7.88;;;6.60;;
71046;SDS011;58703;48.978;8.982;2022-07-29T02:48:44;6.70;;;6.10;;
71046;SDS011;58703;48.978;8.982;2022-07-29T02:51:25;7.70;;;6.57;;
71046;SDS011;58703;48.978;8.982;2022-07-29T02:53:56;6.10;;;5.50;;
71046;SDS011;58703;48.978;8.982;2022-07-29T02:56:27;6.65;;;5.90;;
71046;SDS011;58703;48.978;8.982;2022-07-29T02:59:01;7.07;;;5.55;;
71046;SDS011;58703;48.978;8.982;2022-07-29T03:01:32;7.68;;;6.30;;
71046;SDS011;58703;48.978;8.982;2022-07-29T03:04:00;7.43;;;6.60;;
71046;SDS011;58703;48.978;8.982;2022-07-29T03:06:28;7.50;;;6.70;;
71046;SDS011;58703;48.978;8.982;2022-07-29T03:08:54;8.98;;;7.03;;
71046;SDS011;58703;48.978;8.982;2022-07-29T03:11:21;7.25;;;6.57;;
71046;SDS011;58703;48.978;8.982;2022-07-29T03:13:47;7.73;;;6.87;;
71046;SDS011;58703;48.978;8.982;2022-07-29T03:16:13;8.63;;;6.80;;
71046;SDS011;58703;48.978;8.982;2022-07-29T03:18:40;8.63;;;6.63;;
71046;SDS011;58703;48.978;8.982;2022-07-29T03:21:06;7.10;;;6.18;;
71046;SDS011;58703;48.978;8.982;2022-07-29T03:23:33;11.50;;;7.30;;
71046;SDS011;58703;48.978;8.982;2022-07-29T03:25:59;8.10;;;7.20;;
71046;SDS011;58703;48.978;8.982;2022-07-29T03:28:24;8.70;;;7.10;;
71046;SDS011;58703;48.978;8.982;2022-07-29T03:30:52;10.45;;;7.38;;
71046;SDS011;58703;48.978;8.982;2022-07-29T03:33:18;8.60;;;7.47;;
71046;SDS011;58703;48.978;8.982;2022-07-29T03:35:44;8.10;;;7.23;;
71046;SDS011;58703;48.978;8.982;2022-07-29T03:38:09;8.82;;;7.47;;
71046;SDS011;58703;48.978;8.982;2022-07-29T03:43:03;8.43;;;6.50;;
71046;SDS011;58703;48.978;8.982;2022-07-29T03:45:31;10.18;;;6.63;;
71046;SDS011;58703;48.978;8.982;2022-07-29T03:47:59;7.80;;;6.43;;
71046;SDS011;58703;48.978;8.982;2022-07-29T03:50:30;7.43;;;6.00;;
71046;SDS011;58703;48.978;8.982;2022-07-29T03:52:59;6.80;;;6.20;;
71046;SDS011;58703;48.978;8.982;2022-07-29T03:55:26;8.13;;;6.07;;
71046;SDS011;58703;48.978;8.982;2022-07-29T03:57:54;7.50;;;6.63;;
71046;SDS011;58703;48.978;8.982;2022-07-29T04:00:22;6.30;;;5.70;;
71046;SDS011;58703;48.978;8.982;2022-07-29T04:02:49;7.53;;;6.00;;
71046;SDS011;58703;48.978;8.982;2022-07-29T04:05:14;7.72;;;6.50;;
71046;SDS011;58703;48.978;8.982;2022-07-29T04:07:44;7.15;;;6.30;;
71046;SDS011;58703;48.978;8.982;2022-07-29T04:10:11;8.07;;;7.00;;
71046;SDS011;58703;48.978;8.982;2022-07-29T04:12:37;8.63;;;6.68;;
71046;SDS011;58703;48.978;8.982;2022-07-29T04:15:03;9.77;;;7.27;;
71046;SDS011;58703;48.978;8.982;2022-07-29T04:17:29;7.97;;;6.55;;
71046;SDS011;58703;48.978;8.982;2022-07-29T04:19:55;11.07;;;6.72;;
71046;SDS011;58703;48.978;8.982;2022-07-29T04:22:21;8.63;;;6.10;;
71046;SDS011;58703;48.978;8.982;2022-07-29T04:24:46;6.82;;;6.03;;
71046;SDS011;58703;48.978;8.982;2022-07-29T04:27:12;7.20;;;6.50;;
71046;SDS011;58703;48.978;8.982;2022-07-29T04:29:37;8.07;;;6.50;;
71046;SDS011;58703;48.978;8.982;2022-07-29T04:32:03;7.30;;;5.80;;
71046;SDS011;58703;48.978;8.982;2022-07-29T04:34:29;6.35;;;5.38;;
71046;SDS011;58703;48.978;8.982;2022-07-29T04:36:55;8.30;;;6.03;;
71046;SDS011;58703;48.978;8.982;2022-07-29T04:39:20;6.57;;;5.82;;
71046;SDS011;58703;48.978;8.982;2022-07-29T04:41:46;7.47;;;5.97;;
71046;SDS011;58703;48.978;8.982;2022-07-29T04:44:12;8.05;;;6.13;;
71046;SDS011;58703;48.978;8.982;2022-07-29T04:46:38;6.93;;;5.83;;
71046;SDS011;58703;48.978;8.982;2022-07-29T04:49:03;7.13;;;5.97;;
71046;SDS011;58703;48.978;8.982;2022-07-29T04:51:30;7.05;;;6.35;;
71046;SDS011;58703;48.978;8.982;2022-07-29T04:53:55;8.87;;;5.77;;
71046;SDS011;58703;48.978;8.982;2022-07-29T04:56:21;7.90;;;5.88;;
71046;SDS011;58703;48.978;8.982;2022-07-29T04:58:46;8.33;;;5.93;;
71046;SDS011;58703;48.978;8.982;2022-07-29T05:01:12;6.70;;;6.00;;
71046;SDS011;58703;48.978;8.982;2022-07-29T05:03:39;8.68;;;6.00;;
71046;SDS011;58703;48.978;8.982;2022-07-29T05:06:05;7.83;;;6.07;;
71046;SDS011;58703;48.978;8.982;2022-07-29T05:08:31;9.13;;;5.88;;
71046;SDS011;58703;48.978;8.982;2022-07-29T05:10:57;6.97;;;5.83;;
71046;SDS011;58703;48.978;8.982;2022-07-29T05:13:23;6.05;;;5.43;;
71046;SDS011;58703;48.978;8.982;2022-07-29T05:15:48;8.10;;;5.47;;
71046;SDS011;58703;48.978;8.982;2022-07-29T05:18:14;6.13;;;5.53;;
71046;SDS011;58703;48.978;8.982;2022-07-29T05:20:40;6.18;;;5.38;;
71046;SDS011;58703;48.978;8.982;2022-07-29T05:23:06;6.00;;;5.40;;
71046;SDS011;58703;48.978;8.982;2022-07-29T05:25:32;6.78;;;6.03;;
71046;SDS011;58703;48.978;8.982;2022-07-29T05:27:57;6.40;;;5.80;;
71046;SDS011;58703;48.978;8.982;2022-07-29T05:30:23;6.90;;;5.90;;
71046;SDS011;58703;48.978;8.982;2022-07-29T05:32:49;7.32;;;5.60;;
71046;SDS011;58703;48.978;8.982;2022-07-29T05:35:14;5.70;;;5.07;;
71046;SDS011;58703;48.978;8.982;2022-07-29T05:37:41;8.57;;;5.88;;
71046;SDS011;58703;48.978;8.982;2022-07-29T05:40:07;7.27;;;5.87;;
71046;SDS011;58703;48.978;8.982;2022-07-29T05:42:33;7.43;;;5.10;;
71046;SDS011;58703;48.978;8.982;2022-07-29T05:44:59;6.75;;;5.90;;
71046;SDS011;58703;48.978;8.982;2022-07-29T05:47:25;6.40;;;5.20;;
71046;SDS011;58703;48.978;8.982;2022-07-29T05:49:51;9.60;;;5.67;;
71046;SDS011;58703;48.978;8.982;2022-07-29T05:52:17;6.70;;;5.50;;
71046;SDS011;58703;48.978;8.982;2022-07-29T05:54:43;9.03;;;5.30;;
71046;SDS011;58703;48.978;8.982;2022-07-29T05:57:19;7.18;;;5.20;;
71046;SDS011;58703;48.978;8.982;2022-07-29T05:59:46;5.50;;;5.00;;
71046;SDS011;58703;48.978;8.982;2022-07-29T06:02:12;5.57;;;5.00;;
71046;SDS011;58703;48.978;8.982;2022-07-29T06:04:38;8.85;;;5.75;;
71046;SDS011;58703;48.978;8.982;2022-07-29T06:07:03;5.90;;;5.30;;
71046;SDS011;58703;48.978;8.982;2022-07-29T06:09:29;8.30;;;5.97;;
71046;SDS011;58703;48.978;8.982;2022-07-29T06:11:55;5.43;;;4.70;;
71046;SDS011;58703;48.978;8.982;2022-07-29T06:14:20;5.90;;;5.30;;
71046;SDS011;58703;48.978;8.982;2022-07-29T06:16:46;7.60;;;5.47;;
71046;SDS011;58703;48.978;8.982;2022-07-29T06:19:11;7.73;;;5.23;;
71046;SDS011;58703;48.978;8.982;2022-07-29T06:21:41;6.30;;;4.43;;
71046;SDS011;58703;48.978;8.982;2022-07-29T06:24:07;6.67;;;5.20;;
71046;SDS011;58703;48.978;8.982;2022-07-29T06:26:33;5.07;;;4.57;;
71046;SDS011;58703;48.978;8.982;2022-07-29T06:28:58;5.63;;;5.13;;
71046;SDS011;58703;48.978;8.982;2022-07-29T06:31:24;6.60;;;4.77;;
71046;SDS011;58703;48.978;8.982;2022-07-29T06:33:49;5.20;;;4.70;;
71046;SDS011;58703;48.978;8.982;2022-07-29T06:36:15;7.20;;;4.70;;
71046;SDS011;58703;48.978;8.982;2022-07-29T06:38:40;5.65;;;4.80;;
71046;SDS011;58703;48.978;8.982;2022-07-29T06:41:07;4.83;;;4.23;;
71046;SDS011;58703;48.978;8.982;2022-07-29T06:43:40;6.63;;;5.15;;
71046;SDS011;58703;48.978;8.982;2022-07-29T06:46:11;6.77;;;4.10;;
71046;SDS011;58703;48.978;8.982;2022-07-29T06:48:38;6.32;;;4.40;;
71046;SDS011;58703;48.978;8.982;2022-07-29T06:51:05;4.95;;;4.55;;
71046;SDS011;58703;48.978;8.982;2022-07-29T06:53:31;5.97;;;4.32;;
71046;SDS011;58703;48.978;8.982;2022-07-29T06:55:57;4.75;;;4.13;;
71046;SDS011;58703;48.978;8.982;2022-07-29T06:58:24;5.23;;;3.63;;
71046;SDS011;58703;48.978;8.982;2022-07-29T07:00:50;4.25;;;3.83;;
71046;SDS011;58703;48.978;8.982;2022-07-29T07:03:16;4.28;;;3.90;;
71046;SDS011;58703;48.978;8.982;2022-07-29T07:05:43;4.70;;;4.10;;
71046;SDS011;58703;48.978;8.982;2022-07-29T07:08:09;3.90;;;3.58;;
71046;SDS011;58703;48.978;8.982;2022-07-29T07:10:35;4.30;;;3.90;;
71046;SDS011;58703;48.978;8.982;2022-07-29T07:13:01;5.32;;;3.88;;
71046;SDS011;58703;48.978;8.982;2022-07-29T07:15:28;7.23;;;4.13;;
71046;SDS011;58703;48.978;8.982;2022-07-29T07:17:54;5.05;;;4.22;;
71046;SDS011;58703;48.978;8.982;2022-07-29T07:20:19;4.37;;;3.73;;
71046;SDS011;58703;48.978;8.982;2022-07-29T07:22:45;4.65;;;3.63;;
71046;SDS011;58703;48.978;8.982;2022-07-29T07:25:11;6.10;;;4.20;;
71046;SDS011;58703;48.978;8.982;2022-07-29T07:27:37;4.73;;;3.70;;
71046;SDS011;58703;48.978;8.982;2022-07-29T07:30:06;8.38;;;4.20;;
71046;SDS011;58703;48.978;8.982;2022-07-29T07:32:33;4.80;;;3.50;;
71046;SDS011;58703;48.978;8.982;2022-07-29T07:34:59;3.97;;;3.65;;
71046;SDS011;58703;48.978;8.982;2022-07-29T07:37:25;7.63;;;4.20;;
71046;SDS011;58703;48.978;8.982;2022-07-29T07:39:51;5.30;;;3.80;;
71046;SDS011;58703;48.978;8.982;2022-07-29T07:42:17;5.30;;;3.50;;
71046;SDS011;58703;48.978;8.982;2022-07-29T07:44:43;4.50;;;3.47;;
71046;SDS011;58703;48.978;8.982;2022-07-29T07:47:11;3.30;;;3.00;;
71046;SDS011;58703;48.978;8.982;2022-07-29T07:49:38;4.15;;;3.28;;
71046;SDS011;58703;48.978;8.982;2022-07-29T07:52:03;5.73;;;3.50;;
71046;SDS011;58703;48.978;8.982;2022-07-29T07:54:29;4.65;;;3.90;;
71046;SDS011;58703;48.978;8.982;2022-07-29T07:56:56;3.75;;;3.30;;
71046;SDS011;58703;48.978;8.982;2022-07-29T07:59:21;4.10;;;3.70;;
71046;SDS011;58703;48.978;8.982;2022-07-29T08:01:47;5.43;;;3.33;;
71046;SDS011;58703;48.978;8.982;2022-07-29T08:04:13;5.18;;;3.35;;
71046;SDS011;58703;48.978;8.982;2022-07-29T08:06:38;3.97;;;3.13;;
71046;SDS011;58703;48.978;8.982;2022-07-29T08:09:04;3.57;;;3.27;;
71046;SDS011;58703;48.978;8.982;2022-07-29T08:11:30;5.10;;;3.33;;
71046;SDS011;58703;48.978;8.982;2022-07-29T08:13:56;5.47;;;3.83;;
71046;SDS011;58703;48.978;8.982;2022-07-29T08:16:22;6.10;;;4.27;;
71046;SDS011;58703;48.978;8.982;2022-07-29T08:18:47;4.50;;;3.30;;
71046;SDS011;58703;48.978;8.982;2022-07-29T08:21:13;6.67;;;3.97;;
71046;SDS011;58703;48.978;8.982;2022-07-29T08:23:40;5.10;;;3.80;;
71046;SDS011;58703;48.978;8.982;2022-07-29T08:26:11;4.20;;;3.47;;
71046;SDS011;58703;48.978;8.982;2022-07-29T08:28:38;5.97;;;3.88;;
71046;SDS011;58703;48.978;8.982;2022-07-29T08:31:04;4.87;;;3.60;;
71046;SDS011;58703;48.978;8.982;2022-07-29T08:33:30;5.35;;;3.40;;
71046;SDS011;58703;48.978;8.982;2022-07-29T08:35:56;4.55;;;3.70;;
71046;SDS011;58703;48.978;8.982;2022-07-29T08:38:22;3.63;;;3.30;;
71046;SDS011;58703;48.978;8.982;2022-07-29T08:40:47;7.00;;;3.33;;
71046;SDS011;58703;48.978;8.982;2022-07-29T08:43:13;3.92;;;3.38;;
71046;SDS011;58703;48.978;8.982;2022-07-29T08:45:41;6.40;;;3.77;;
71046;SDS011;58703;48.978;8.982;2022-07-29T08:48:09;5.13;;;4.00;;
71046;SDS011;58703;48.978;8.982;2022-07-29T08:50:36;6.70;;;3.93;;
71046;SDS011;58703;48.978;8.982;2022-07-29T08:53:03;4.53;;;3.78;;
71046;SDS011;58703;48.978;8.982;2022-07-29T08:55:30;6.32;;;3.85;;
71046;SDS011;58703;48.978;8.982;2022-07-29T08:57:55;5.45;;;3.85;;
71046;SDS011;58703;48.978;8.982;2022-07-29T09:00:21;4.73;;;3.90;;
71046;SDS011;58703;48.978;8.982;2022-07-29T09:02:49;5.22;;;3.83;;
71046;SDS011;58703;48.978;8.982;2022-07-29T09:05:20;3.25;;;2.95;;
71046;SDS011;58703;48.978;8.982;2022-07-29T09:07:46;6.97;;;4.00;;
71046;SDS011;58703;48.978;8.982;2022-07-29T09:10:13;5.68;;;3.50;;
71046;SDS011;58703;48.978;8.982;2022-07-29T09:12:38;6.80;;;3.80;;
71046;SDS011;58703;48.978;8.982;2022-07-29T09:15:04;5.03;;;3.75;;
71046;SDS011;58703;48.978;8.982;2022-07-29T09:17:47;4.37;;;3.47;;
71046;SDS011;58703;48.978;8.982;2022-07-29T09:20:15;8.50;;;4.30;;
71046;SDS011;58703;48.978;8.982;2022-07-29T09:22:45;4.28;;;3.88;;
71046;SDS011;58703;48.978;8.982;2022-07-29T09:25:14;6.90;;;3.70;;
71046;SDS011;58703;48.978;8.982;2022-07-29T09:28:04;6.10;;;4.10;;
71046;SDS011;58703;48.978;8.982;2022-07-29T09:30:31;5.63;;;3.97;;
71046;SDS011;58703;48.978;8.982;2022-07-29T09:32:58;4.80;;;3.47;;
71046;SDS011;58703;48.978;8.982;2022-07-29T09:35:28;7.07;;;3.80;;
71046;SDS011;58703;48.978;8.982;2022-07-29T09:37:55;5.97;;;3.40;;
71046;SDS011;58703;48.978;8.982;2022-07-29T09:40:22;5.57;;;3.80;;
71046;SDS011;58703;48.978;8.982;2022-07-29T09:42:49;4.43;;;2.90;;
71046;SDS011;58703;48.978;8.982;2022-07-29T09:45:29;3.30;;;2.90;;
71046;SDS011;58703;48.978;8.982;2022-07-29T09:47:56;5.07;;;2.70;;
71046;SDS011;58703;48.978;8.982;2022-07-29T09:50:35;6.45;;;3.00;;
71046;SDS011;58703;48.978;8.982;2022-07-29T09:53:01;4.55;;;3.03;;
71046;SDS011;58703;48.978;8.982;2022-07-29T09:55:27;3.50;;;3.17;;
71046;SDS011;58703;48.978;8.982;2022-07-29T09:57:53;2.90;;;2.47;;
71046;SDS011;58703;48.978;8.982;2022-07-29T10:00:19;6.67;;;3.10;;
71046;SDS011;58703;48.978;8.982;2022-07-29T10:02:47;4.45;;;2.90;;
71046;SDS011;58703;48.978;8.982;2022-07-29T10:07:51;3.35;;;2.72;;
71046;SDS011;58703;48.978;8.982;2022-07-29T10:10:21;5.40;;;2.80;;
71046;SDS011;58703;48.978;8.982;2022-07-29T10:12:58;6.07;;;3.08;;
71046;SDS011;58703;48.978;8.982;2022-07-29T10:15:32;4.70;;;3.00;;
71046;SDS011;58703;48.978;8.982;2022-07-29T10:18:03;4.25;;;3.10;;
71046;SDS011;58703;48.978;8.982;2022-07-29T10:20:30;3.08;;;2.53;;
71046;SDS011;58703;48.978;8.982;2022-07-29T10:22:55;6.07;;;2.70;;
71046;SDS011;58703;48.978;8.982;2022-07-29T10:25:22;5.63;;;3.15;;
71046;SDS011;58703;48.978;8.982;2022-07-29T10:27:48;4.70;;;3.03;;
71046;SDS011;58703;48.978;8.982;2022-07-29T10:30:16;5.93;;;2.90;;
71046;SDS011;58703;48.978;8.982;2022-07-29T10:35:17;3.75;;;2.85;;
71046;SDS011;58703;48.978;8.982;2022-07-29T10:43:29;4.75;;;2.60;;
71046;SDS011;58703;48.978;8.982;2022-07-29T10:46:01;5.60;;;2.80;;
71046;SDS011;58703;48.978;8.982;2022-07-29T10:48:27;4.38;;;2.80;;
71046;SDS011;58703;48.978;8.982;2022-07-29T10:53:47;4.65;;;2.80;;
71046;SDS011;58703;48.978;8.982;2022-07-29T10:56:30;5.05;;;2.63;;
71046;SDS011;58703;48.978;8.982;2022-07-29T11:01:50;3.50;;;2.65;;
71046;SDS011;58703;48.978;8.982;2022-07-29T11:04:28;4.40;;;2.40;;
71046;SDS011;58703;48.978;8.982;2022-07-29T11:07:10;3.58;;;2.40;;
71046;SDS011;58703;48.978;8.982;2022-07-29T11:09:37;6.53;;;2.38;;
71046;SDS011;58703;48.978;8.982;2022-07-29T11:12:04;3.57;;;2.70;;
71046;SDS011;58703;48.978;8.982;2022-07-29T11:15:01;4.65;;;2.35;;
71046;SDS011;58703;48.978;8.982;2022-07-29T11:17:28;5.25;;;2.20;;
71046;SDS011;58703;48.978;8.982;2022-07-29T11:22:57;5.57;;;2.30;;
71046;SDS011;58703;48.978;8.982;2022-07-29T11:25:23;2.93;;;2.27;;
71046;SDS011;58703;48.978;8.982;2022-07-29T11:27:50;5.85;;;2.70;;
71046;SDS011;58703;48.978;8.982;2022-07-29T11:30:17;3.10;;;2.47;;
71046;SDS011;58703;48.978;8.982;2022-07-29T11:32:43;3.13;;;2.83;;
71046;SDS011;58703;48.978;8.982;2022-07-29T11:35:11;8.70;;;2.83;;
71046;SDS011;58703;48.978;8.982;2022-07-29T11:37:46;3.50;;;2.47;;
71046;SDS011;58703;48.978;8.982;2022-07-29T11:40:12;5.35;;;2.92;;
71046;SDS011;58703;48.978;8.982;2022-07-29T11:42:41;4.13;;;2.63;;
71046;SDS011;58703;48.978;8.982;2022-07-29T11:45:15;5.50;;;2.67;;
71046;SDS011;58703;48.978;8.982;2022-07-29T11:50:30;5.10;;;2.90;;
71046;SDS011;58703;48.978;8.982;2022-07-29T11:52:57;2.83;;;2.58;;
71046;SDS011;58703;48.978;8.982;2022-07-29T11:55:23;4.93;;;2.75;;
71046;SDS011;58703;48.978;8.982;2022-07-29T11:57:51;4.43;;;2.53;;
71046;SDS011;58703;48.978;8.982;2022-07-29T12:00:28;5.50;;;2.73;;
71046;SDS011;58703;48.978;8.982;2022-07-29T12:02:56;6.35;;;2.55;;
71046;SDS011;58703;48.978;8.982;2022-07-29T12:05:30;5.45;;;3.00;;
71046;SDS011;58703;48.978;8.982;2022-07-29T12:08:03;5.07;;;2.55;;
71046;SDS011;58703;48.978;8.982;2022-07-29T12:10:33;9.07;;;3.03;;
71046;SDS011;58703;48.978;8.982;2022-07-29T12:12:59;6.40;;;2.53;;
71046;SDS011;58703;48.978;8.982;2022-07-29T12:15:24;4.50;;;2.60;;
71046;SDS011;58703;48.978;8.982;2022-07-29T12:17:51;5.03;;;2.53;;
71046;SDS011;58703;48.978;8.982;2022-07-29T12:20:28;5.87;;;2.80;;
71046;SDS011;58703;48.978;8.982;2022-07-29T12:22:54;5.40;;;2.75;;
71046;SDS011;58703;48.978;8.982;2022-07-29T12:25:21;4.00;;;2.53;;
71046;SDS011;58703;48.978;8.982;2022-07-29T12:28:02;4.50;;;2.38;;
71046;SDS011;58703;48.978;8.982;2022-07-29T12:33:16;5.47;;;2.50;;
71046;SDS011;58703;48.978;8.982;2022-07-29T12:35:50;5.38;;;2.70;;
71046;SDS011;58703;48.978;8.982;2022-07-29T12:38:18;5.78;;;2.60;;
71046;SDS011;58703;48.978;8.982;2022-07-29T12:40:44;3.05;;;2.75;;
71046;SDS011;58703;48.978;8.982;2022-07-29T12:45:42;5.47;;;2.70;;
71046;SDS011;58703;48.978;8.982;2022-07-29T12:48:10;5.38;;;3.20;;
71046;SDS011;58703;48.978;8.982;2022-07-29T12:50:58;3.80;;;2.50;;
71046;SDS011;58703;48.978;8.982;2022-07-29T12:53:22;5.83;;;2.67;;
71046;SDS011;58703;48.978;8.982;2022-07-29T12:55:49;7.43;;;2.60;;
71046;SDS011;58703;48.978;8.982;2022-07-29T12:58:38;4.10;;;2.35;;
71046;SDS011;58703;48.978;8.982;2022-07-29T13:01:15;7.07;;;2.70;;
71046;SDS011;58703;48.978;8.982;2022-07-29T13:03:53;5.38;;;2.90;;
71046;SDS011;58703;48.978;8.982;2022-07-29T13:11:34;5.07;;;2.47;;
71046;SDS011;58703;48.978;8.982;2022-07-29T13:14:02;8.55;;;3.13;;
71046;SDS011;58703;48.978;8.982;2022-07-29T13:16:28;7.32;;;2.80;;
71046;SDS011;58703;48.978;8.982;2022-07-29T13:19:10;5.77;;;2.70;;
71046;SDS011;58703;48.978;8.982;2022-07-29T13:21:38;6.28;;;3.08;;
71046;SDS011;58703;48.978;8.982;2022-07-29T13:24:05;5.27;;;2.60;;
71046;SDS011;58703;48.978;8.982;2022-07-29T13:26:31;3.63;;;2.42;;
71046;SDS011;58703;48.978;8.982;2022-07-29T13:28:57;3.35;;;2.60;;
71046;SDS011;58703;48.978;8.982;2022-07-29T13:31:22;4.47;;;2.30;;
71046;SDS011;58703;48.978;8.982;2022-07-29T13:33:48;3.50;;;2.57;;
71046;SDS011;58703;48.978;8.982;2022-07-29T13:36:13;4.30;;;2.95;;
71046;SDS011;58703;48.978;8.982;2022-07-29T13:38:39;2.53;;;2.30;;
71046;SDS011;58703;48.978;8.982;2022-07-29T13:41:04;4.75;;;2.90;;
71046;SDS011;58703;48.978;8.982;2022-07-29T13:43:30;2.90;;;2.37;;
71046;SDS011;58703;48.978;8.982;2022-07-29T13:45:56;3.60;;;2.50;;
71046;SDS011;58703;48.978;8.982;2022-07-29T13:48:21;2.35;;;2.15;;
71046;SDS011;58703;48.978;8.982;2022-07-29T13:50:47;3.83;;;2.30;;
71046;SDS011;58703;48.978;8.982;2022-07-29T13:53:13;5.93;;;2.35;;
71046;SDS011;58703;48.978;8.982;2022-07-29T13:55:39;6.03;;;2.08;;
71046;SDS011;58703;48.978;8.982;2022-07-29T13:58:05;3.67;;;2.17;;
71046;SDS011;58703;48.978;8.982;2022-07-29T14:00:30;3.63;;;2.10;;
71046;SDS011;58703;48.978;8.982;2022-07-29T14:02:56;3.33;;;2.40;;
71046;SDS011;58703;48.978;8.982;2022-07-29T14:05:22;4.95;;;2.42;;
71046;SDS011;58703;48.978;8.982;2022-07-29T14:07:48;5.67;;;2.67;;
71046;SDS011;58703;48.978;8.982;2022-07-29T14:10:13;3.50;;;2.25;;
71046;SDS011;58703;48.978;8.982;2022-07-29T14:12:39;4.28;;;2.13;;
71046;SDS011;58703;48.978;8.982;2022-07-29T14:15:07;3.30;;;1.97;;
71046;SDS011;58703;48.978;8.982;2022-07-29T14:17:33;2.03;;;1.92;;
71046;SDS011;58703;48.978;8.982;2022-07-29T14:19:59;4.35;;;2.10;;
71046;SDS011;58703;48.978;8.982;2022-07-29T14:22:24;4.10;;;2.00;;
71046;SDS011;58703;48.978;8.982;2022-07-29T14:24:50;7.63;;;2.00;;
71046;SDS011;58703;48.978;8.982;2022-07-29T14:27:16;4.23;;;2.43;;
71046;SDS011;58703;48.978;8.982;2022-07-29T14:29:41;2.35;;;1.85;;
71046;SDS011;58703;48.978;8.982;2022-07-29T14:32:07;4.27;;;1.93;;
71046;SDS011;58703;48.978;8.982;2022-07-29T14:34:35;3.78;;;2.15;;
71046;SDS011;58703;48.978;8.982;2022-07-29T14:37:02;4.97;;;1.77;;
71046;SDS011;58703;48.978;8.982;2022-07-29T14:39:30;4.57;;;1.90;;
71046;SDS011;58703;48.978;8.982;2022-07-29T14:41:56;2.70;;;1.70;;
71046;SDS011;58703;48.978;8.982;2022-07-29T14:44:21;4.60;;;1.70;;
71046;SDS011;58703;48.978;8.982;2022-07-29T14:46:47;3.43;;;1.87;;
71046;SDS011;58703;48.978;8.982;2022-07-29T14:49:12;4.87;;;1.83;;
71046;SDS011;58703;48.978;8.982;2022-07-29T14:51:38;4.27;;;1.53;;
71046;SDS011;58703;48.978;8.982;2022-07-29T14:54:04;2.45;;;1.40;;
71046;SDS011;58703;48.978;8.982;2022-07-29T14:56:29;3.93;;;1.80;;
71046;SDS011;58703;48.978;8.982;2022-07-29T14:58:55;1.50;;;1.40;;
71046;SDS011;58703;48.978;8.982;2022-07-29T15:01:22;1.97;;;1.70;;
71046;SDS011;58703;48.978;8.982;2022-07-29T15:03:48;2.30;;;1.40;;
71046;SDS011;58703;48.978;8.982;2022-07-29T15:06:14;1.95;;;1.40;;
71046;SDS011;58703;48.978;8.982;2022-07-29T15:08:39;7.23;;;1.60;;
71046;SDS011;58703;48.978;8.982;2022-07-29T15:11:05;3.80;;;1.57;;
71046;SDS011;58703;48.978;8.982;2022-07-29T15:13:30;3.57;;;1.70;;
71046;SDS011;58703;48.978;8.982;2022-07-29T15:15:56;3.00;;;1.50;;
71046;SDS011;58703;48.978;8.982;2022-07-29T15:18:21;4.68;;;1.98;;
71046;SDS011;58703;48.978;8.982;2022-07-29T15:20:47;2.23;;;1.10;;
71046;SDS011;58703;48.978;8.982;2022-07-29T15:23:22;2.73;;;1.53;;
71046;SDS011;58703;48.978;8.982;2022-07-29T15:25:53;1.38;;;1.25;;
71046;SDS011;58703;48.978;8.982;2022-07-29T15:28:18;2.08;;;1.48;;
71046;SDS011;58703;48.978;8.982;2022-07-29T15:30:44;2.42;;;1.77;;
71046;SDS011;58703;48.978;8.982;2022-07-29T15:33:10;1.50;;;1.40;;
71046;SDS011;58703;48.978;8.982;2022-07-29T15:35:38;6.85;;;1.75;;
71046;SDS011;58703;48.978;8.982;2022-07-29T15:38:04;3.53;;;1.83;;